createdAt,value
2018-07-21T00:00:14.701Z,50.50
2018-07-21T00:02:46.026Z,51.10
2018-07-21T00:05:17.156Z,51.30
2018-07-21T00:10:18.767Z,51.60
2018-07-21T00:12:50.276Z,51.70
2018-07-21T00:15:22.095Z,51.50
2018-07-21T00:17:53.054Z,51.50
2018-07-21T00:20:25.032Z,51.70
2018-07-21T00:22:56.040Z,51.80
2018-07-21T00:25:27.258Z,51.80
2018-07-21T00:27:59.072Z,51.50
2018-07-21T00:30:29.960Z,51.40
2018-07-21T00:33:02.635Z,51.50
2018-07-21T00:35:33.877Z,52.00
2018-07-21T00:38:05.038Z,51.90
2018-07-21T00:40:36.336Z,51.90
2018-07-21T00:43:07.875Z,52.00
2018-07-21T00:45:39.108Z,52.50
2018-07-21T00:48:10.272Z,52.70
2018-07-21T00:50:41.908Z,52.60
2018-07-21T00:53:13.574Z,52.80
2018-07-21T01:02:36.111Z,52.90
2018-07-21T01:05:07.255Z,53.40
2018-07-21T01:07:38.256Z,53.60
2018-07-21T01:10:09.845Z,53.80
2018-07-21T01:12:41.258Z,53.90
2018-07-21T01:15:12.514Z,54.10
2018-07-21T01:17:43.581Z,54.10
2018-07-21T01:20:15.822Z,54.20
2018-07-21T01:22:47.215Z,54.20
2018-07-21T01:25:18.864Z,54.50
2018-07-21T01:27:49.835Z,54.50
2018-07-21T01:30:21.278Z,54.50
2018-07-21T01:32:51.614Z,54.40
2018-07-21T01:35:22.808Z,54.80
2018-07-21T01:37:53.944Z,55.10
2018-07-21T01:40:25.100Z,55.20
2018-07-21T01:42:56.111Z,55.30
2018-07-21T01:45:28.018Z,55.40
2018-07-21T01:47:59.453Z,55.10
2018-07-21T01:50:30.730Z,55.20
2018-07-21T01:53:02.260Z,55.40
2018-07-21T01:55:33.817Z,55.50
2018-07-21T01:58:05.795Z,55.70
2018-07-21T02:00:36.749Z,55.30
2018-07-21T02:05:38.370Z,55.40
2018-07-21T02:08:09.378Z,55.30
2018-07-21T02:10:39.984Z,55.90
2018-07-21T02:13:11.619Z,55.60
2018-07-21T02:15:43.072Z,55.80
2018-07-21T02:18:14.093Z,55.50
2018-07-21T02:20:45.168Z,56.00
2018-07-21T02:25:55.185Z,55.90
2018-07-21T02:28:26.097Z,56.10
2018-07-21T02:30:58.231Z,56.10
2018-07-21T02:33:29.441Z,56.10
2018-07-21T02:36:00.465Z,56.30
2018-07-21T02:38:32.815Z,56.60
2018-07-21T02:41:04.886Z,56.60
2018-07-21T02:43:35.786Z,56.70
2018-07-21T02:46:07.132Z,56.30
2018-07-21T02:48:38.328Z,56.00
2018-07-21T02:51:09.699Z,55.90
2018-07-21T02:56:12.887Z,55.80
2018-07-21T02:58:45.181Z,55.80
2018-07-21T03:01:16.349Z,55.90
2018-07-21T03:03:47.940Z,56.20
2018-07-21T03:06:19.312Z,56.50
2018-07-21T03:08:51.064Z,56.70
2018-07-21T03:11:22.012Z,56.90
2018-07-21T03:13:53.601Z,57.30
2018-07-21T03:16:25.178Z,57.40
2018-07-21T03:18:56.842Z,57.70
2018-07-21T03:21:28.561Z,58.20
2018-07-21T03:23:59.578Z,59.00
2018-07-21T03:26:30.915Z,61.20
2018-07-21T03:29:01.823Z,62.70
2018-07-21T03:31:32.500Z,64.20
2018-07-21T03:34:04.330Z,65.50
2018-07-21T03:36:35.015Z,66.90
2018-07-21T03:39:08.379Z,67.80
2018-07-21T03:41:40.196Z,68.00
2018-07-21T03:44:11.205Z,68.40
2018-07-21T03:46:42.398Z,68.80
2018-07-21T03:49:14.954Z,69.00
2018-07-21T03:51:47.224Z,69.30
2018-07-21T03:54:19.912Z,69.40
2018-07-21T03:56:51.283Z,69.20
2018-07-21T03:59:23.167Z,69.50
2018-07-21T04:01:55.272Z,69.60
2018-07-21T04:04:27.636Z,69.90
2018-07-21T04:09:31.376Z,69.80
2018-07-21T04:12:03.439Z,69.70
2018-07-21T04:14:36.298Z,69.60
2018-07-21T04:17:13.080Z,69.60
2018-07-21T04:19:45.689Z,69.30
2018-07-21T04:22:18.261Z,69.00
2018-07-21T04:24:50.099Z,68.70
2018-07-21T04:27:22.440Z,67.90
2018-07-21T04:29:55.094Z,67.80
2018-07-21T04:32:26.462Z,67.70
2018-07-21T04:34:58.395Z,67.40
2018-07-21T04:37:30.700Z,67.70
2018-07-21T04:40:02.542Z,67.50
2018-07-21T04:42:33.759Z,67.50
2018-07-21T04:45:06.500Z,67.70
2018-07-21T04:47:38.562Z,67.70
2018-07-21T04:50:09.948Z,67.80
2018-07-21T04:52:41.146Z,68.10
2018-07-21T04:55:13.130Z,68.10
2018-07-21T04:57:44.851Z,68.20
2018-07-21T05:00:17.305Z,68.00
2018-07-21T05:02:48.272Z,68.00
2018-07-21T05:05:20.277Z,68.30
2018-07-21T05:07:52.475Z,68.10
2018-07-21T05:10:24.070Z,67.90
2018-07-21T05:12:55.929Z,67.80
2018-07-21T05:15:28.239Z,67.50
2018-07-21T05:17:59.731Z,67.40
2018-07-21T05:20:31.650Z,67.30
2018-07-21T05:23:03.582Z,67.20
2018-07-21T05:25:35.327Z,67.20
2018-07-21T05:28:07.076Z,67.00
2018-07-21T05:30:38.570Z,66.80
2018-07-21T05:33:10.247Z,66.40
2018-07-21T05:35:41.384Z,66.20
2018-07-21T05:38:13.864Z,66.20
2018-07-21T05:40:46.096Z,66.20
2018-07-21T05:43:18.195Z,65.90
2018-07-21T05:45:50.349Z,65.90
2018-07-21T05:48:22.177Z,65.80
2018-07-21T05:50:54.891Z,65.60
2018-07-21T05:53:27.166Z,65.60
2018-07-21T05:55:59.904Z,65.40
2018-07-21T05:58:32.129Z,65.30
2018-07-21T06:01:05.518Z,65.10
2018-07-21T06:03:37.736Z,64.80
2018-07-21T06:06:11.250Z,64.80
2018-07-21T06:08:43.391Z,64.70
2018-07-21T06:11:15.339Z,64.90
2018-07-21T06:13:47.365Z,65.00
2018-07-21T06:16:17.301Z,65.10
2018-07-21T06:18:47.385Z,65.20
2018-07-21T06:21:18.590Z,65.50
2018-07-21T06:23:49.386Z,65.80
2018-07-21T06:26:19.650Z,65.70
2018-07-21T06:28:51.817Z,65.40
2018-07-21T06:31:23.755Z,65.20
2018-07-21T06:33:55.730Z,65.10
2018-07-21T06:36:26.605Z,64.70
2018-07-21T06:38:59.191Z,64.70
2018-07-21T06:41:31.478Z,64.30
2018-07-21T06:44:02.955Z,64.00
2018-07-21T06:46:34.269Z,64.40
2018-07-21T06:49:05.432Z,64.20
2018-07-21T06:51:37.282Z,64.00
2018-07-21T06:54:08.308Z,63.70
2018-07-21T06:56:39.689Z,62.90
2018-07-21T06:59:12.084Z,62.90
2018-07-21T07:01:44.155Z,62.90
2018-07-21T07:04:16.958Z,63.20
2018-07-21T07:06:49.166Z,63.60
2018-07-21T07:09:21.251Z,63.60
2018-07-21T07:14:25.425Z,63.60
2018-07-21T07:16:57.717Z,64.00
2018-07-21T07:19:29.340Z,64.00
2018-07-21T07:22:01.344Z,63.90
2018-07-21T07:24:34.263Z,63.80
2018-07-21T07:27:05.908Z,63.70
2018-07-21T07:29:38.034Z,63.40
2018-07-21T07:34:41.435Z,63.20
2018-07-21T07:37:13.248Z,62.70
2018-07-21T07:39:44.999Z,62.30
2018-07-21T07:42:17.910Z,62.50
2018-07-21T07:44:49.662Z,62.50
2018-07-21T07:47:21.767Z,62.50
2018-07-21T07:49:54.006Z,63.20
2018-07-21T07:52:25.474Z,63.20
2018-07-21T07:54:58.020Z,63.70
2018-07-21T07:57:29.569Z,63.90
2018-07-21T08:00:00.901Z,64.10
2018-07-21T08:02:32.663Z,64.20
2018-07-21T08:05:04.386Z,64.30
2018-07-21T08:07:36.101Z,64.30
2018-07-21T08:10:08.019Z,64.20
2018-07-21T08:12:39.270Z,64.30
2018-07-21T08:17:42.993Z,64.40
2018-07-21T08:20:16.080Z,64.30
2018-07-21T08:22:48.045Z,64.30
2018-07-21T08:25:19.745Z,64.20
2018-07-21T08:27:50.697Z,64.30
2018-07-21T08:30:22.649Z,64.50
2018-07-21T08:32:55.840Z,64.60
2018-07-21T08:37:58.651Z,64.90
2018-07-21T08:40:30.018Z,65.20
2018-07-21T08:43:01.711Z,65.10
2018-07-21T08:45:33.448Z,65.40
2018-07-21T08:48:05.287Z,65.50
2018-07-21T08:50:37.425Z,65.80
2018-07-21T08:53:08.773Z,65.90
2018-07-21T08:55:39.935Z,65.80
2018-07-21T08:58:11.818Z,65.80
2018-07-21T09:00:43.974Z,65.60
2018-07-21T09:03:15.174Z,65.50
2018-07-21T09:05:46.592Z,65.60
2018-07-21T09:08:18.733Z,65.80
2018-07-21T09:10:49.359Z,65.90
2018-07-21T09:13:20.368Z,66.10
2018-07-21T09:15:52.006Z,65.90
2018-07-21T09:18:23.244Z,65.90
2018-07-21T09:20:54.491Z,65.90
2018-07-21T09:23:25.919Z,66.40
2018-07-21T09:25:57.275Z,66.60
2018-07-21T09:28:29.367Z,66.80
2018-07-21T09:31:00.223Z,66.70
2018-07-21T09:33:32.694Z,66.70
2018-07-21T09:36:04.060Z,66.70
2018-07-21T09:41:04.953Z,66.70
2018-07-21T09:43:36.473Z,66.70
2018-07-21T09:46:08.193Z,66.80
2018-07-21T09:48:39.040Z,66.50
2018-07-21T09:51:10.173Z,66.60
2018-07-21T09:53:42.807Z,66.60
2018-07-21T09:56:14.093Z,66.50
2018-07-21T09:58:46.533Z,66.60
2018-07-21T10:01:18.256Z,66.70
2018-07-21T10:03:50.437Z,66.50
2018-07-21T10:06:21.791Z,66.60
2018-07-21T10:08:53.479Z,66.70
2018-07-21T10:11:24.727Z,66.40
2018-07-21T10:13:56.683Z,66.50
2018-07-21T10:16:27.783Z,66.50
2018-07-21T10:18:58.981Z,66.20
2018-07-21T10:21:30.636Z,66.40
2018-07-21T10:24:08.183Z,66.20
2018-07-21T10:26:44.203Z,66.20
2018-07-21T10:29:15.892Z,66.20
2018-07-21T10:31:47.081Z,65.80
2018-07-21T10:34:18.533Z,66.20
2018-07-21T10:36:49.604Z,66.20
2018-07-21T10:39:20.957Z,65.90
2018-07-21T10:41:52.325Z,66.10
2018-07-21T10:44:24.370Z,66.20
2018-07-21T10:46:54.668Z,66.20
2018-07-21T10:49:25.914Z,66.70
2018-07-21T10:51:57.585Z,67.90
2018-07-21T10:54:28.660Z,68.70
2018-07-21T10:56:59.758Z,69.70
2018-07-21T10:59:31.472Z,70.20
2018-07-21T11:02:02.903Z,70.40
2018-07-21T11:04:34.175Z,70.70
2018-07-21T11:07:04.982Z,70.60
2018-07-21T11:09:36.242Z,71.30
2018-07-21T11:12:07.187Z,71.40
2018-07-21T11:14:38.551Z,71.00
2018-07-21T11:17:09.313Z,71.50
2018-07-21T11:19:40.959Z,72.10
2018-07-21T11:22:12.818Z,72.00
2018-07-21T11:24:44.404Z,73.00
2018-07-21T11:27:14.740Z,73.40
2018-07-21T11:29:45.276Z,73.80
2018-07-21T11:32:17.070Z,74.30
2018-07-21T11:34:48.972Z,75.00
2018-07-21T11:37:20.918Z,74.80
2018-07-21T11:39:52.439Z,75.10
2018-07-21T11:42:23.914Z,75.40
2018-07-21T11:44:55.558Z,74.90
2018-07-21T11:47:26.688Z,75.10
2018-07-21T11:49:58.160Z,75.30
2018-07-21T11:52:28.493Z,75.00
2018-07-21T11:54:59.591Z,75.70
2018-07-21T11:57:31.151Z,75.80
2018-07-21T12:00:02.512Z,76.00
2018-07-21T12:02:33.875Z,76.00
2018-07-21T12:05:06.256Z,76.00
2018-07-21T12:07:37.638Z,76.10
2018-07-21T12:10:07.955Z,76.20
2018-07-21T12:12:38.940Z,76.20
2018-07-21T12:15:09.960Z,76.40
2018-07-21T12:17:40.114Z,76.30
2018-07-21T12:20:11.503Z,76.80
2018-07-21T12:22:42.138Z,76.70
2018-07-21T12:25:12.536Z,76.40
2018-07-21T12:27:44.337Z,76.00
2018-07-21T12:32:45.818Z,76.40
2018-07-21T12:35:17.583Z,76.00
2018-07-21T12:37:48.524Z,75.60
2018-07-21T12:40:19.668Z,75.40
2018-07-21T12:45:21.325Z,75.40
2018-07-21T12:47:52.536Z,75.80
2018-07-21T12:50:23.282Z,75.70
2018-07-21T12:52:54.614Z,75.90
2018-07-21T12:55:25.756Z,75.60
2018-07-21T13:00:27.980Z,74.30
2018-07-21T13:02:58.788Z,75.10
2018-07-21T13:05:30.366Z,75.00
2018-07-21T13:08:01.735Z,74.80
2018-07-21T13:10:33.482Z,74.00
2018-07-21T13:13:04.678Z,73.30
2018-07-21T13:15:36.133Z,72.70
2018-07-21T13:18:07.420Z,72.60
2018-07-21T13:20:38.675Z,72.20
2018-07-21T13:23:08.793Z,71.60
2018-07-21T13:25:39.308Z,71.40
2018-07-21T13:28:09.826Z,72.50
2018-07-21T13:30:40.764Z,73.60
2018-07-21T13:33:12.277Z,73.30
2018-07-21T13:35:43.594Z,73.40
2018-07-21T13:38:14.245Z,71.70
2018-07-21T13:40:45.773Z,72.00
2018-07-21T13:43:17.012Z,71.00
2018-07-21T13:45:48.104Z,70.80
2018-07-21T13:48:18.145Z,71.30
2018-07-21T13:50:50.023Z,71.20
2018-07-21T13:53:21.671Z,70.50
2018-07-21T13:55:52.818Z,71.20
2018-07-21T13:58:23.867Z,71.70
2018-07-21T14:00:55.540Z,72.00
2018-07-21T14:03:25.818Z,72.20
2018-07-21T14:05:58.555Z,72.40
2018-07-21T14:08:30.060Z,72.70
2018-07-21T14:11:00.709Z,72.40
2018-07-21T14:13:31.706Z,72.40
2018-07-21T14:16:03.006Z,72.20
2018-07-21T14:18:34.236Z,72.40
2018-07-21T14:21:08.163Z,71.90
2018-07-21T14:23:40.068Z,71.60
2018-07-21T14:26:11.312Z,71.40
2018-07-21T14:28:42.840Z,71.40
2018-07-21T14:31:14.425Z,71.30
2018-07-21T14:33:45.388Z,70.90
2018-07-21T14:36:17.358Z,70.30
2018-07-21T14:38:48.489Z,70.10
2018-07-21T14:41:19.830Z,70.50
2018-07-21T14:43:50.692Z,70.40
2018-07-21T14:46:21.049Z,70.30
2018-07-21T14:48:52.089Z,70.40
2018-07-21T14:51:23.238Z,70.40
2018-07-21T14:53:54.218Z,70.40
2018-07-21T14:56:25.629Z,70.00
2018-07-21T14:58:56.242Z,69.80
2018-07-21T15:01:27.752Z,69.20
2018-07-21T15:03:59.181Z,69.20
2018-07-21T15:06:30.727Z,69.40
2018-07-21T15:09:01.254Z,69.40
2018-07-21T15:11:33.007Z,69.20
2018-07-21T15:14:03.754Z,69.00
2018-07-21T15:19:05.770Z,68.60
2018-07-21T15:21:37.448Z,68.30
2018-07-21T15:24:08.410Z,68.00
2018-07-21T15:26:39.100Z,67.90
2018-07-21T15:29:10.197Z,67.60
2018-07-21T15:31:41.405Z,67.40
2018-07-21T15:36:43.220Z,67.60
2018-07-21T15:39:14.315Z,67.00
2018-07-21T15:41:46.083Z,67.10
2018-07-21T15:44:18.270Z,67.20
2018-07-21T15:46:49.533Z,67.60
2018-07-21T15:49:20.520Z,67.50
2018-07-21T15:51:50.810Z,67.40
2018-07-21T15:54:21.930Z,67.60
2018-07-21T15:56:53.484Z,67.40
2018-07-21T15:59:24.228Z,67.40
2018-07-21T16:01:56.083Z,67.10
2018-07-21T16:04:27.763Z,67.10
2018-07-21T16:06:59.771Z,67.20
2018-07-21T16:09:31.148Z,66.80
2018-07-21T16:12:02.129Z,66.40
2018-07-21T16:14:33.787Z,66.50
2018-07-21T16:17:04.911Z,65.70
2018-07-21T16:19:35.903Z,65.80
2018-07-21T16:22:06.986Z,66.00
2018-07-21T16:24:38.484Z,66.60
2018-07-21T16:27:09.309Z,66.30
2018-07-21T16:29:40.618Z,66.60
2018-07-21T16:32:13.133Z,66.30
2018-07-21T16:34:44.607Z,66.20
2018-07-21T16:37:15.780Z,66.60
2018-07-21T16:39:46.803Z,67.00
2018-07-21T16:42:17.816Z,67.10
2018-07-21T16:44:49.994Z,67.30
2018-07-21T16:47:21.840Z,67.00
2018-07-21T16:49:52.462Z,67.10
2018-07-21T16:52:23.994Z,67.30
2018-07-21T16:54:55.209Z,67.20
2018-07-21T16:57:26.205Z,67.40
2018-07-21T16:59:57.268Z,67.60
2018-07-21T17:02:28.350Z,67.80
2018-07-21T17:04:59.116Z,67.80
2018-07-21T17:07:30.187Z,67.80
2018-07-21T17:10:01.294Z,67.80
2018-07-21T17:12:32.683Z,67.60
2018-07-21T17:15:03.455Z,67.30
2018-07-21T17:17:33.646Z,67.20
2018-07-21T17:20:04.550Z,66.50
2018-07-21T17:22:36.221Z,65.10
2018-07-21T17:25:08.535Z,64.50
2018-07-21T17:27:39.381Z,64.50
2018-07-21T17:30:09.607Z,64.50
2018-07-21T17:32:39.962Z,64.60
2018-07-21T17:35:11.358Z,65.00
2018-07-21T17:37:43.106Z,65.10
2018-07-21T17:40:14.038Z,65.20
2018-07-21T17:42:45.121Z,65.30
2018-07-21T17:45:16.092Z,65.10
2018-07-21T17:47:47.066Z,64.90
2018-07-21T17:50:17.840Z,64.90
2018-07-21T17:52:48.144Z,65.10
2018-07-21T17:55:19.266Z,65.40
2018-07-21T17:57:50.246Z,66.00
2018-07-21T18:00:21.413Z,65.80
2018-07-21T18:02:52.802Z,66.20
2018-07-21T18:05:24.087Z,66.20
2018-07-21T18:07:55.672Z,66.20
2018-07-21T18:10:25.981Z,66.30
2018-07-21T18:12:57.013Z,66.30
2018-07-21T18:15:28.213Z,66.50
2018-07-21T18:17:59.599Z,66.70
2018-07-21T18:20:31.047Z,66.70
2018-07-21T18:23:02.462Z,66.70
2018-07-21T18:25:33.291Z,66.80
2018-07-21T18:28:04.942Z,67.00
2018-07-21T18:30:35.474Z,67.30
2018-07-21T18:33:06.658Z,67.50
2018-07-21T18:35:36.857Z,67.80
2018-07-21T18:38:08.814Z,67.80
2018-07-21T18:40:39.773Z,68.00
2018-07-21T18:43:11.353Z,68.20
2018-07-21T18:45:42.370Z,68.90
2018-07-21T18:48:13.294Z,68.70
2018-07-21T18:50:43.911Z,68.60
2018-07-21T18:53:14.300Z,68.50
2018-07-21T18:55:44.719Z,68.30
2018-07-21T18:58:15.685Z,67.80
2018-07-21T19:00:47.056Z,67.60
2018-07-21T19:03:18.133Z,67.50
2018-07-21T19:05:48.572Z,67.40
2018-07-21T19:08:25.516Z,67.10
2018-07-21T19:10:55.917Z,67.10
2018-07-21T19:13:27.090Z,66.90
2018-07-21T19:16:02.710Z,66.90
2018-07-21T19:18:34.616Z,66.90
2018-07-21T19:21:10.771Z,67.30
2018-07-21T19:23:41.701Z,67.20
2018-07-21T19:26:18.481Z,67.20
2018-07-21T19:28:49.576Z,67.10
2018-07-21T19:31:21.418Z,67.20
2018-07-21T19:33:52.095Z,67.40
2018-07-21T19:36:24.606Z,67.60
2018-07-21T19:38:55.973Z,67.30
2018-07-21T19:41:31.462Z,67.30
2018-07-21T19:44:03.531Z,67.30
2018-07-21T19:46:35.263Z,67.40
2018-07-21T19:49:06.993Z,67.10
2018-07-21T19:51:38.364Z,67.00
2018-07-21T19:56:40.260Z,66.90
2018-07-21T19:59:12.379Z,67.20
2018-07-21T20:01:43.421Z,67.20
2018-07-21T20:04:14.764Z,67.10
2018-07-21T20:06:45.935Z,66.90
2018-07-21T20:09:16.523Z,66.20
2018-07-21T20:11:47.920Z,65.90
2018-07-21T20:14:19.472Z,66.40
2018-07-21T20:16:50.271Z,66.50
2018-07-21T20:19:21.963Z,66.40
2018-07-21T20:21:52.755Z,66.30
2018-07-21T20:24:24.011Z,66.50
2018-07-21T20:26:55.008Z,66.40
2018-07-21T20:29:25.557Z,66.20
2018-07-21T20:31:56.521Z,66.30
2018-07-21T20:34:28.591Z,66.40
2018-07-21T20:37:00.364Z,66.30
2018-07-21T20:39:32.024Z,66.20
2018-07-21T20:44:35.572Z,66.30
2018-07-21T20:47:06.762Z,66.20
2018-07-21T20:49:37.653Z,66.50
2018-07-21T20:52:08.822Z,66.60
2018-07-21T20:54:40.453Z,66.50
2018-07-21T20:57:11.951Z,66.70
2018-07-21T20:59:43.689Z,66.80
2018-07-21T21:02:15.148Z,67.10
2018-07-21T21:04:45.147Z,67.00
2018-07-21T21:07:16.596Z,67.10
2018-07-21T21:09:48.812Z,67.00
2018-07-21T21:12:20.093Z,67.20
2018-07-21T21:14:50.566Z,67.60
2018-07-21T21:17:21.182Z,67.60
2018-07-21T21:19:53.099Z,67.60
2018-07-21T21:22:24.443Z,67.70
2018-07-21T21:24:55.380Z,67.60
2018-07-21T21:27:26.101Z,67.50
2018-07-21T21:29:58.218Z,67.30
2018-07-21T21:32:29.186Z,67.30
2018-07-21T21:35:00.633Z,67.60
2018-07-21T21:37:32.156Z,67.70
2018-07-21T21:40:03.497Z,67.70
2018-07-21T21:42:34.408Z,67.80
2018-07-21T21:45:05.561Z,67.80
2018-07-21T21:47:36.847Z,67.90
2018-07-21T21:50:08.167Z,67.90
2018-07-21T21:52:39.250Z,67.90
2018-07-21T21:55:11.013Z,68.00
2018-07-21T21:57:41.920Z,68.10
2018-07-21T22:00:13.359Z,68.50
2018-07-21T22:02:44.537Z,68.30
2018-07-21T22:05:15.894Z,68.40
2018-07-21T22:10:17.047Z,68.40
2018-07-21T22:12:48.439Z,68.40
2018-07-21T22:15:22.593Z,68.50
2018-07-21T22:17:53.935Z,68.70
2018-07-21T22:20:26.119Z,68.80
2018-07-21T22:25:27.831Z,68.90
2018-07-21T22:27:58.363Z,69.10
2018-07-21T22:30:29.682Z,69.10
2018-07-21T22:35:32.209Z,69.20
2018-07-21T22:40:33.547Z,69.30
2018-07-21T22:43:04.124Z,69.50
2018-07-21T22:48:07.414Z,69.70
2018-07-21T22:50:38.857Z,69.60
2018-07-21T22:53:09.038Z,69.80
2018-07-21T22:55:41.215Z,69.90
2018-07-21T22:58:13.005Z,70.20
2018-07-21T23:05:44.203Z,70.40
2018-07-21T23:08:15.264Z,70.50
2018-07-21T23:10:46.951Z,70.70
2018-07-21T23:15:47.929Z,70.70
2018-07-21T23:18:19.968Z,70.90
2018-07-21T23:20:51.910Z,71.10
2018-07-21T23:23:23.068Z,71.00
2018-07-21T23:25:53.666Z,71.00
2018-07-21T23:28:26.001Z,71.00
2018-07-21T23:30:57.046Z,71.20
2018-07-21T23:33:28.052Z,71.10
2018-07-21T23:35:59.985Z,71.30
2018-07-21T23:38:31.085Z,71.40
2018-07-21T23:41:03.263Z,71.40
2018-07-21T23:43:34.064Z,71.60
2018-07-21T23:46:10.182Z,71.70
2018-07-21T23:48:41.625Z,71.70
2018-07-21T23:51:13.526Z,71.70
2018-07-21T23:53:45.197Z,71.80
2018-07-21T23:56:16.416Z,72.00
2018-07-21T23:58:47.023Z,72.10
